Report METAR

 

LIRQ - Firenze/Peretola, Italy
Distance from station: N 59km
Dati ricevuti: 19/08/2018 01:20
Sereno
Sereno
 Vento da Variabile
Vento: Variabile 2 km/h
Temperatura: 23°C
P.to Rugiada: 16°C
Umidità: 65%
Barometro: 1017 hPa
Summary: Sereno
Visibility: superiore a 10 km
2018/08/18 23:20 LIRQ 182320Z VRB01KT CAVOK 23/16 Q1017
LIRS - Grosseto (it-Afb, Italy
Distance from station: SSO 59km
Dati ricevuti: 18/08/2018 23:55
DATI Obsoleti
Sereno
Sereno
 Vento da ENE
Vento: ENE 9 km/h
Temperatura: 23°C
P.to Rugiada: 19°C
Umidità: 78%
Barometro: 1015 hPa
Summary: Sereno
Visibility: superiore a 10 km
2018/08/18 21:55 LIRS 182155Z 07005KT CAVOK 23/19 Q1015
 
LIRP - Pisa (civ/It-Afb, Italy
Distance from station: ONO 87km
Dati ricevuti: 19/08/2018 00:45
Sereno
Sereno
 Vento da Variabile
Vento: Variabile 2 km/h
Temperatura: 22°C
P.to Rugiada: 22°C
Umidità: 100%
Barometro: 1017 hPa
Summary: Sereno
Visibility: superiore a 10 km
2018/08/18 22:45 LIRP 182245Z VRB01KT CAVOK 22/22 Q1017 NOSIG
LIRX - Monte Calamita, Italy
Distance from station: SO 93km
Dati ricevuti: 18/08/2018 16:55
DATI Obsoleti
Few Clouds
Few Clouds
 Vento da calmo
Vento: Calma
Temperatura: 29°C
Indice di Calore: 33°C
P.to Rugiada: 24°C
Umidità: 74%
Barometro: 1015 hPa
Nuvole: Few Clouds
Visibility: 10 km
Cloud details: Few Clouds 152 m
2018/08/18 14:55 LIRX 181455Z 00000KT 9999 FEW005 29/24 Q1015 RMK FEW VIS MIN 9999 VIS MAR 30 KM
 
LIQO - Mount Argentario, Italy
Distance from station: S 99km
Dati ricevuti: 17/08/2018 07:55
DATI Obsoleti
Nebbia
Nebbia
 Vento da E
Vento: E 2 km/h
Temperatura: 21°C
P.to Rugiada: 20°C
Umidità: 94%
Barometro: 1016 hPa
Summary: Nebbia
Visibility: 0 km
2018/08/17 05:55 LIQO 170555Z 10001KT 0000 FG VV/// 21/20 Q1016 RMK VAL INVIS VIS MIN 0000
LIRZ - Perugia, Italy
Distance from station: E 100km
Dati ricevuti: 19/08/2018 00:50
Sereno
Sereno
 Vento da N
Vento: N 7 km/h
Temperatura: 19°C
P.to Rugiada: 17°C
Umidità: 88%
Barometro: 1018 hPa
Nuvole: Sereno
Visibility: 10 km
2018/08/18 22:50 LIRZ 182250Z AUTO 36004KT 9999 NCD 19/17 Q1018